Orbital elements of COSMOS 2251 DEB
| Launched | 15 June 1993 |
| Flight ended | – |
| Launch site | Plesetsk Missile and Space Complex, Russia |
| Owner | Commonwealth of Independent States (former USSR) |
| NORAD ID | 34572 |
| Date fetched |
Epoch osculation |
Inc. [°] |
Ecc. | RA asc node [hr] |
Arg Peri. [°] |
Mean anom [°] |
Mean motion [rev/day] |
Abs. mag |
| Date fetched |
Epoch osculation |
Inc. [°] |
Ecc. | RA asc node [hr] |
Arg Peri. [°] |
Mean anom [°] |
Mean motion [rev/day] |
Abs. mag |
| 2026 May 03 17:57 | 2026 Apr 29 16:24:22 | 74.0100 | 0.00626 | 14.3630 | 256.7215 | 227.4354 | 14.52477 | – |
| 2026 May 02 17:57 | 2026 Apr 29 16:24:22 | 74.0100 | 0.00626 | 14.3630 | 256.7215 | 227.4354 | 14.52477 | – |
| 2026 May 01 17:56 | 2026 Apr 29 16:24:22 | 74.0100 | 0.00626 | 14.3630 | 256.7215 | 227.4354 | 14.52477 | – |
| 2026 Apr 30 17:56 | 2026 Apr 29 16:24:22 | 74.0100 | 0.00626 | 14.3630 | 256.7215 | 227.4354 | 14.52477 | – |
| 2026 Apr 29 17:57 | 2026 Apr 24 07:01:52 | 74.0092 | 0.00622 | 15.0417 | 267.9272 | 227.4354 | 14.52477 | – |
| 2026 Apr 28 17:56 | 2026 Apr 24 07:01:52 | 74.0092 | 0.00622 | 15.0417 | 267.9272 | 227.4354 | 14.52477 | – |
| 2026 Apr 27 17:58 | 2026 Apr 24 07:01:52 | 74.0092 | 0.00622 | 15.0417 | 267.9272 | 227.4354 | 14.52477 | – |
| 2026 Apr 26 17:58 | 2026 Apr 24 07:01:52 | 74.0092 | 0.00622 | 15.0417 | 267.9272 | 227.4354 | 14.52477 | – |
| 2026 Apr 25 17:58 | 2026 Apr 24 07:01:52 | 74.0092 | 0.00622 | 15.0417 | 267.9272 | 227.4354 | 14.52477 | – |
| 2026 Apr 24 17:59 | 2026 Apr 24 07:01:52 | 74.0092 | 0.00622 | 15.0417 | 267.9272 | 227.4354 | 14.52477 | – |
| 2026 Apr 23 17:57 | 2026 Apr 19 08:00:29 | 74.0093 | 0.00617 | 15.6660 | 278.3876 | 227.4354 | 14.52477 | – |
| 2026 Apr 22 17:57 | 2026 Apr 19 08:00:29 | 74.0093 | 0.00617 | 15.6660 | 278.3876 | 227.4354 | 14.52477 | – |
| 2026 Apr 21 17:57 | 2026 Apr 19 08:00:29 | 74.0093 | 0.00617 | 15.6660 | 278.3876 | 227.4354 | 14.52477 | – |
| 2026 Apr 20 17:57 | 2026 Apr 19 08:00:29 | 74.0093 | 0.00617 | 15.6660 | 278.3876 | 227.4354 | 14.52477 | – |
| 2026 Apr 19 17:58 | 2026 Apr 19 08:00:29 | 74.0093 | 0.00617 | 15.6660 | 278.3876 | 227.4354 | 14.52477 | – |
| 2026 Apr 18 17:56 | 2026 Apr 11 20:22:20 | 74.0084 | 0.00611 | 16.6082 | 294.3806 | 227.4354 | 14.52477 | – |
| 2026 Apr 16 17:57 | 2026 Apr 11 20:22:20 | 74.0084 | 0.00611 | 16.6082 | 294.3806 | 227.4354 | 14.52477 | – |
| 2026 Apr 14 17:57 | 2026 Apr 11 20:22:20 | 74.0084 | 0.00611 | 16.6082 | 294.3806 | 227.4354 | 14.52477 | – |
| 2026 Apr 13 17:57 | 2026 Apr 11 20:22:20 | 74.0084 | 0.00611 | 16.6082 | 294.3806 | 227.4354 | 14.52477 | – |
| 2026 Apr 12 17:57 | 2026 Apr 08 10:48:31 | 74.0096 | 0.00608 | 17.0359 | 301.6402 | 227.4354 | 14.52477 | – |
| 2026 Apr 11 17:57 | 2026 Apr 08 10:48:31 | 74.0096 | 0.00608 | 17.0359 | 301.6402 | 227.4354 | 14.52477 | – |
| 2026 Apr 10 17:58 | 2026 Apr 08 10:48:31 | 74.0096 | 0.00608 | 17.0359 | 301.6402 | 227.4354 | 14.52477 | – |
| 2026 Apr 09 18:01 | 2026 Apr 08 10:48:31 | 74.0096 | 0.00608 | 17.0359 | 301.6402 | 227.4354 | 14.52477 | – |
| 2026 Apr 08 17:57 | 2026 Apr 08 10:48:31 | 74.0096 | 0.00608 | 17.0359 | 301.6402 | 227.4354 | 14.52477 | – |
| 2026 Apr 07 17:57 | 2026 Apr 01 11:48:45 | 74.0080 | 0.00606 | 17.9117 | 316.6968 | 227.4354 | 14.52477 | – |
| 2026 Apr 06 17:57 | 2026 Apr 01 11:48:45 | 74.0080 | 0.00606 | 17.9117 | 316.6968 | 227.4354 | 14.52477 | – |